King River, Nevada
Current Conditions -  °F | °C
As of 12:56 PM on Thursday 23 Oct 2014 (Local Time) from KWMC Reporting Station
Few Clouds Few Clouds  
Wind Chill: 67°   Ceiling: Unl
Heat Index: 67°   Visibility: 10mi
Dew Point: 29°   Wind: 5mph
Humidity: 24%   Direction: 360°N
Pressure: 30.07"   Gusts: NA
Location:  41.7393°N, 118.104°W
Report Text: KWMC 231956Z AUTO 36004KT 10SM FEW120 19/M02 A3007 RMK AO2 SLP157 T01941017
Loading
Personal Weather Stations






























Interactive Weather Map
Tropical Storm Tracking
New forecast layout! Learn more

10-Day Weather Forecast

Advertisements
Track Severe Weather on mobile